地図

経路データ

SID SEASON NUMBER BASIN SUBBASIN NAME ISO_TIME NATURE LAT LON WMO_WIND WMO_PRES WMO_AGENCY TRACK_TYPE DIST2LAND LANDFALL IFLAG USA_AGENCY USA_ATCF_ID USA_LAT USA_LON USA_RECORD USA_STATUS USA_WIND USA_PRES USA_SSHS USA_R34_NE USA_R34_SE USA_R34_SW USA_R34_NW USA_R50_NE USA_R50_SE USA_R50_SW USA_R50_NW USA_R64_NE USA_R64_SE USA_R64_SW USA_R64_NW USA_POCI USA_ROCI USA_RMW USA_EYE TOKYO_LAT TOKYO_LON TOKYO_GRADE TOKYO_WIND TOKYO_PRES TOKYO_R50_DIR TOKYO_R50_LONG TOKYO_R50_SHORT TOKYO_R30_DIR TOKYO_R30_LONG TOKYO_R30_SHORT TOKYO_LAND CMA_LAT CMA_LON CMA_CAT CMA_WIND CMA_PRES HKO_LAT HKO_LON HKO_CAT HKO_WIND HKO_PRES NEWDELHI_LAT NEWDELHI_LON NEWDELHI_GRADE NEWDELHI_WIND NEWDELHI_PRES NEWDELHI_CI NEWDELHI_DP NEWDELHI_POCI REUNION_LAT REUNION_LON REUNION_TYPE REUNION_WIND REUNION_PRES REUNION_TNUM REUNION_CI REUNION_RMW REUNION_R34_NE REUNION_R34_SE REUNION_R34_SW REUNION_R34_NW REUNION_R50_NE REUNION_R50_SE REUNION_R50_SW REUNION_R50_NW REUNION_R64_NE REUNION_R64_SE REUNION_R64_SW REUNION_R64_NW BOM_LAT BOM_LON BOM_TYPE BOM_WIND BOM_PRES BOM_TNUM BOM_CI BOM_RMW BOM_R34_NE BOM_R34_SE BOM_R34_SW BOM_R34_NW BOM_R50_NE BOM_R50_SE BOM_R50_SW BOM_R50_NW BOM_R64_NE BOM_R64_SE BOM_R64_SW BOM_R64_NW BOM_ROCI BOM_POCI BOM_EYE BOM_POS_METHOD BOM_PRES_METHOD NADI_LAT NADI_LON NADI_CAT NADI_WIND NADI_PRES WELLINGTON_LAT WELLINGTON_LON WELLINGTON_WIND WELLINGTON_PRES DS824_LAT DS824_LON DS824_STAGE DS824_WIND DS824_PRES TD9636_LAT TD9636_LON TD9636_STAGE TD9636_WIND TD9636_PRES TD9635_LAT TD9635_LON TD9635_WIND TD9635_PRES TD9635_ROCI NEUMANN_LAT NEUMANN_LON NEUMANN_CLASS NEUMANN_WIND NEUMANN_PRES MLC_LAT MLC_LON MLC_CLASS MLC_WIND MLC_PRES USA_GUST BOM_GUST BOM_GUST_PER REUNION_GUST REUNION_GUST_PER USA_SEAHGT USA_SEARAD_NE USA_SEARAD_SE USA_SEARAD_SW USA_SEARAD_NW STORM_SPEED STORM_DIR
1995292N08150 1995 82 WP MM YVETTE 1995-10-18 12:00:00 NR 7.50000 150.000 main 1113 1108 O_____________ jtwc_wp WP271995 7.50000 150.000 15 -1 13 283
1995292N08150 1995 82 WP MM YVETTE 1995-10-18 15:00:00 NR 7.65024 149.338 main 1118 1110 P_____________ WP271995 7.65024 149.338 15 -1 13 283
1995292N08150 1995 82 WP MM YVETTE 1995-10-18 18:00:00 NR 7.80000 148.700 main 1118 1116 O_____________ jtwc_wp WP271995 7.80000 148.700 15 -1 13 284
1995292N08150 1995 82 WP MM YVETTE 1995-10-18 21:00:00 NR 7.94985 148.100 main 1123 1123 P_____________ WP271995 7.94985 148.100 15 -1 12 284
1995292N08150 1995 82 WP MM YVETTE 1995-10-19 00:00:00 NR 8.10000 147.500 main 1143 1142 O_____________ jtwc_wp WP271995 8.10000 147.500 15 -1 13 284
1995292N08150 1995 82 WP MM YVETTE 1995-10-19 03:00:00 NR 8.24993 146.857 main 1154 1154 P_____________ WP271995 8.24993 146.857 15 -1 13 283
1995292N08150 1995 82 WP MM YVETTE 1995-10-19 06:00:00 NR 8.40000 146.200 main 1177 1177 O_____________ jtwc_wp WP271995 8.40000 146.200 15 -1 13 283
1995292N08150 1995 82 WP MM YVETTE 1995-10-19 09:00:00 NR 8.55746 145.535 main 1205 1205 P_____________ WP271995 8.55746 145.535 15 -1 13 283
1995292N08150 1995 82 WP MM YVETTE 1995-10-19 12:00:00 NR 8.70000 144.900 main 1224 1224 O_____________ jtwc_wp WP271995 8.70000 144.900 15 -1 12 282
1995292N08150 1995 82 WP MM YVETTE 1995-10-19 15:00:00 NR 8.80735 144.335 main 1247 1247 P_____________ WP271995 8.80735 144.335 15 -1 11 280
1995292N08150 1995 82 WP MM YVETTE 1995-10-19 18:00:00 NR 8.90000 143.800 main 1271 1271 O_____________ jtwc_wp WP271995 8.90000 143.800 15 -1 11 280
1995292N08150 1995 82 WP MM YVETTE 1995-10-19 21:00:00 NR 9.00001 143.228 main 1299 1298 P_____________ WP271995 9.00001 143.228 15 -1 11 280
1995292N08150 1995 82 WP MM YVETTE 1995-10-20 00:00:00 NR 9.10000 142.700 main 1298 1290 O_____________ jtwc_wp WP271995 9.10000 142.700 15 -1 9 282
1995292N08150 1995 82 WP MM YVETTE 1995-10-20 03:00:00 NR 9.19982 142.292 main 1292 1285 P_____________ WP271995 9.19982 142.292 15 -1 8 284
1995292N08150 1995 82 WP MM YVETTE 1995-10-20 06:00:00 NR 9.30000 141.900 main 1288 1281 O_____________ jtwc_wp WP271995 9.30000 141.900 15 -1 9 283
1995292N08150 1995 82 WP MM YVETTE 1995-10-20 09:00:00 NR 9.39999 141.415 main 1282 1276 P_____________ WP271995 9.39999 141.415 15 -1 10 281
1995292N08150 1995 82 WP MM YVETTE 1995-10-20 12:00:00 NR 9.50000 140.900 main 1279 1266 O_____________ jtwc_wp WP271995 9.50000 140.900 15 -1 10 281
1995292N08150 1995 82 WP MM YVETTE 1995-10-20 15:00:00 NR 9.59993 140.400 main 1267 1254 P_____________ WP271995 9.59993 140.400 15 -1 10 281
1995292N08150 1995 82 WP MM YVETTE 1995-10-20 18:00:00 NR 9.70000 139.900 main 1257 1249 O_____________ jtwc_wp WP271995 9.70000 139.900 15 -1 10 282
1995292N08150 1995 82 WP MM YVETTE 1995-10-20 21:00:00 NR 9.80736 139.415 main 1249 1242 P_____________ WP271995 9.80736 139.415 15 -1 10 281
1995292N08150 1995 82 WP MM YVETTE 1995-10-21 00:00:00 NR 9.90000 138.900 main 1242 1230 O_____________ jtwc_wp WP271995 9.90000 138.900 15 -1 11 278
1995292N08150 1995 82 WP MM YVETTE 1995-10-21 03:00:00 NR 9.96493 138.322 main 1235 1221 P_____________ WP271995 9.96493 138.322 15 -1 12 275
1995292N08150 1995 82 WP MM YVETTE 1995-10-21 06:00:00 NR 10.0000 137.700 main 1221 1182 O_____________ jtwc_wp WP271995 10.0000 137.700 15 -1 12 272
1995292N08150 1995 82 WP MM YVETTE 1995-10-21 09:00:00 NR 10.0074 137.057 main 1182 1107 P_____________ WP271995 10.0074 137.057 15 -1 13 270
1995292N08150 1995 82 WP MM YVETTE 1995-10-21 12:00:00 NR 10.0000 136.400 main 1107 1043 O_____________ jtwc_wp WP271995 10.0000 136.400 15 -1 13 270
1995292N08150 1995 82 WP MM YVETTE 1995-10-21 15:00:00 NR 9.99983 135.758 main 1043 969 P_____________ WP271995 9.99983 135.758 15 -1 13 270
1995292N08150 1995 82 WP MM YVETTE 1995-10-21 18:00:00 NR 10.0000 135.100 main 969 895 O_____________ jtwc_wp WP271995 10.0000 135.100 15 -1 13 270
1995292N08150 1995 82 WP MM YVETTE 1995-10-21 21:00:00 NR 9.99995 134.400 main 895 822 P_____________ WP271995 9.99995 134.400 15 -1 14 270
1995292N08150 1995 82 WP MM YVETTE 1995-10-22 00:00:00 NR 10.0000 133.700 main 822 758 O_____________ jtwc_wp WP271995 10.0000 133.700 15 -1 13 269
1995292N08150 1995 82 WP MM YVETTE 1995-10-22 03:00:00 NR 9.97724 133.057 main 758 683 P_____________ WP271995 9.97724 133.057 15 -1 13 270
1995292N08150 1995 82 WP MM YVETTE 1995-10-22 06:00:00 NR 10.0000 132.400 main 683 610 O_____________ jtwc_wp WP271995 10.0000 132.400 15 -1 14 275
1995292N08150 1995 82 WP MM YVETTE 1995-10-22 09:00:00 NR 10.0898 131.687 main 610 530 P_____________ WP271995 10.0898 131.687 15 -1 15 281
1995292N08150 1995 82 WP MM YVETTE 1995-10-22 12:00:00 NR 10.3000 130.900 main 530 445 O_____________ jtwc_wp WP271995 10.3000 130.900 15 -1 17 288
1995292N08150 1995 82 WP MM YVETTE 1995-10-22 15:00:00 NR 10.6251 130.007 main 445 433 P_____________ WP271995 10.6251 130.007 15 -1 12 296
1995292N08150 1995 82 WP MM YVETTE 1995-10-22 18:00:00 TS 10.8429 129.771 1006 tokyo main 433 371 OOOO__________ jtwc_wp WP271995 11.1000 129.100 15 -1 10.5000 131.000 2 1006 0 0 0 10.5000 131.000 1 23 1006 10.5000 130.000 TD 25 1005 10 301
1995292N08150 1995 82 WP MM YVETTE 1995-10-22 21:00:00 TS 11.1568 129.115 main 361 289 PPPP__________ WP271995 11.7345 128.307 17 -1 10.6509 129.987 2 1006 0 0 10.6509 129.987 1 23 1006 11.0132 128.986 TD 25 1005 16 296
1995292N08150 1995 82 WP MM YVETTE 1995-10-23 00:00:00 TS 11.5462 128.308 1006 tokyo main 278 216 OOOO__________ jtwc_wp WP271995 12.4000 127.500 20 -1 11.0000 129.000 2 1006 0 0 0 11.0000 129.000 1 23 1006 11.5000 128.000 TD 25 1005 19 298
1995292N08150 1995 82 WP MM YVETTE 1995-10-23 03:00:00 TS 12.0471 127.422 main 207 113 PPPP__________ WP271995 12.9527 126.543 25 -1 11.6492 128.038 2 1005 0 0 11.6492 128.038 1 26 1005 11.9372 127.070 TD 27 1002 21 300
1995292N08150 1995 82 WP MM YVETTE 1995-10-23 06:00:00 TS 12.5750 126.450 1004 tokyo main 117 55 OOOO__________ jtwc_wp WP271995 13.4000 125.600 30 -1 12.3000 127.000 2 1004 0 0 0 12.3000 127.000 1 29 1004 12.3000 126.200 TD 30 1000 21 294
1995292N08150 1995 82 WP MM YVETTE 1995-10-23 09:00:00 TS 12.9219 125.419 main 49 44 PPPP__________ WP271995 13.7672 124.790 30 -1 12.6704 125.750 2 1004 0 0 12.6704 125.750 1 29 1004 12.5796 125.385 TD 30 1000 20 285
1995292N08150 1995 82 WP MM YVETTE 1995-10-23 12:00:00 TS 13.1000 124.425 1004 tokyo main 34 0 OOOO__________ jtwc_wp WP271995 14.0000 124.100 30 -1 12.8000 124.500 2 1004 0 0 0 12.8000 124.500 1 29 1004 12.8000 124.600 TD 30 1000 18 277
1995292N08150 1995 82 WP MM YVETTE 1995-10-23 15:00:00 TS 13.1319 123.566 main 0 0 PPPP__________ WP271995 14.0870 123.535 32 -1 12.7091 123.469 2 1004 0 0 12.7091 123.469 1 29 1003 13.0223 123.792 TD 30 1000 16 269
1995292N08150 1995 82 WP MM YVETTE 1995-10-23 18:00:00 TS 13.0750 122.750 1004 tokyo main 15 11 OOOO__________ jtwc_wp WP271995 14.1000 123.000 35 0 12.5000 122.500 2 1004 0 0 0 12.5000 122.500 1 29 1002 13.2000 123.000 TD 30 1000 17 267
1995292N08150 1995 82 WP MM YVETTE 1995-10-23 21:00:00 TS 13.0337 121.858 main 43 0 PPPP__________ WP271995 14.1648 122.380 35 0 12.3202 121.405 2 1005 0 0 12.3202 121.405 1 29 1002 13.3297 122.242 TD 30 1000 17 267
1995292N08150 1995 82 WP MM YVETTE 1995-10-24 00:00:00 TS 13.0000 121.000 1006 tokyo main 0 0 OOOO__________ jtwc_wp WP271995 14.2000 121.700 35 0 12.2000 120.400 2 1006 0 0 0 12.2000 120.400 1 29 1002 13.4000 121.500 TD 30 1000 16 269
1995292N08150 1995 82 WP MM YVETTE 1995-10-24 03:00:00 TS 13.0011 120.221 main 39 39 PPPP__________ WP271995 14.1652 120.935 35 0 12.2121 119.610 2 1004 0 0 12.2121 119.610 1 29 1002 13.4150 120.727 TD 30 1000 14 271
1995292N08150 1995 82 WP MM YVETTE 1995-10-24 06:00:00 TS 13.0250 119.550 1002 tokyo main 88 88 OOOO__________ jtwc_wp WP271995 14.1000 120.200 35 0 12.3000 119.000 2 1002 0 0 0 12.3000 119.000 1 29 1002 13.4000 120.000 TD 30 1000 11 272
1995292N08150 1995 82 WP MM YVETTE 1995-10-24 09:00:00 TS 13.0450 119.054 main 137 137 PPPP__________ WP271995 14.0415 119.695 35 0 12.3694 118.565 2 1002 0 0 12.3694 118.565 1 29 1001 13.3996 119.393 TD 30 1000 10 274
1995292N08150 1995 82 WP MM YVETTE 1995-10-24 12:00:00 TS 13.1000 118.525 1002 tokyo main 197 197 OOOO__________ jtwc_wp WP271995 14.0000 119.100 35 0 12.5000 118.100 2 1002 0 0 0 12.5000 118.100 1 29 1000 13.4000 118.800 TD 30 1000 13 278
1995292N08150 1995 82 WP MM YVETTE 1995-10-24 15:00:00 TS 13.2176 117.742 main 282 282 PPPP__________ WP271995 13.9931 118.103 37 0 12.7351 117.360 2 1002 0 0 12.7426 117.360 1 31 999 13.3997 118.145 TD 32 999 17 279
1995292N08150 1995 82 WP MM YVETTE 1995-10-24 18:00:00 TS 13.3500 116.850 1002 tokyo main 366 366 OOOO__________ jtwc_wp WP271995 14.0000 117.000 40 0 13.0000 116.500 2 1002 0 0 0 13.0000 116.500 2 34 998 13.4000 117.400 TS 35 998 17 278
1995292N08150 1995 82 WP MM YVETTE 1995-10-24 21:00:00 TS 13.4466 115.981 main 444 444 PPPP__________ WP271995 13.9917 116.092 42 0 13.2299 115.650 2 1000 0 0 13.1649 115.650 2 34 998 13.4000 116.530 TS 37 996 17 276
1995292N08150 1995 82 WP MM YVETTE 1995-10-25 00:00:00 TS 13.5250 115.100 35 998 tokyo main 533 514 OOOO__________ jtwc_wp WP271995 14.0000 115.200 45 0 13.4000 114.800 3 35 998 0 9 120 120 0 13.3000 114.800 2 34 998 13.4000 115.600 TS 40 994 18 275
1995292N08150 1995 82 WP MM YVETTE 1995-10-25 03:00:00 TS 13.6025 114.189 main 514 429 PPPP__________ WP271995 14.0652 114.178 45 0 13.4800 113.947 3 35 997 0 9 120 120 13.4649 113.963 2 39 996 13.4000 114.670 TS 40 994 17 274
1995292N08150 1995 82 WP MM YVETTE 1995-10-25 06:00:00 TS 13.6500 113.350 35 996 tokyo main 431 357 OOOO__________ jtwc_wp WP271995 14.1000 113.200 45 0 13.5000 113.200 3 35 996 0 9 120 120 0 13.6000 113.200 2 44 995 13.4000 113.800 TS 40 994 15 272
1995292N08150 1995 82 WP MM YVETTE 1995-10-25 09:00:00 TS 13.6502 112.677 main 357 292 PPPP__________ WP271995 14.0145 112.397 50 0 13.5144 112.678 3 35 995 0 9 120 120 13.6722 112.562 2 44 992 13.3995 113.070 TS 40 994 12 269
1995292N08150 1995 82 WP MM YVETTE 1995-10-25 12:00:00 TS 13.6250 112.075 35 994 tokyo main 292 230 OOOO__________ jtwc_wp WP271995 13.9000 111.700 55 0 13.5000 112.200 3 35 994 0 9 120 120 0 13.7000 112.000 2 44 990 13.4000 112.400 TS 40 994 12 268
1995292N08150 1995 82 WP MM YVETTE 1995-10-25 15:00:00 TS 13.6093 111.426 main 220 161 PPPP__________ WP271995 13.8498 111.028 57 0 13.4577 111.550 3 37 993 0 9 130 130 13.7299 111.435 2 44 990 13.3999 111.693 TS 42 992 12 268
1995292N08150 1995 82 WP MM YVETTE 1995-10-25 18:00:00 TS 13.5750 110.800 40 992 tokyo main 161 108 OOOO__________ jtwc_wp WP271995 13.8000 110.400 60 0 13.4000 110.900 3 40 992 0 9 140 140 0 13.7000 110.900 2 44 990 13.4000 111.000 TS 45 990 12 265
1995292N08150 1995 82 WP MM YVETTE 1995-10-25 21:00:00 TS 13.4997 110.236 main 97 43 PPPP__________ WP271995 13.7073 109.793 62 0 13.3347 110.392 3 45 988 0 9 150 130 13.5572 110.415 2 46 987 13.3998 110.343 TS 47 987 11 262
1995292N08150 1995 82 WP MM YVETTE 1995-10-26 00:00:00 TS 13.4250 109.675 50 985 tokyo main 43 0 OOOO__________ jtwc_wp WP271995 13.6000 109.200 65 1 13.3000 109.900 4 50 985 9 2 160 120 0 13.4000 109.900 3 48 985 13.4000 109.700 STS 50 985 11 264
1995292N08150 1995 82 WP MM YVETTE 1995-10-26 03:00:00 TS 13.3849 109.061 main 0 0 PPPP__________ WP271995 13.4922 108.615 62 0 13.3350 109.315 4 45 988 9 2 140 120 13.3126 109.257 3 43 990 13.3998 109.058 STS 45 989 12 268
1995292N08150 1995 82 WP MM YVETTE 1995-10-26 06:00:00 TS 13.3800 108.413 40 992 tokyo main 0 0 OOOO__________ jtwc_wp WP271995 13.4000 108.000 60 0 13.4000 108.700 3 40 992 0 9 120 120 0 13.3000 108.600 2 38 995 13.4000 108.400 TS 40 994 13 270
1995292N08150 1995 82 WP MM YVETTE 1995-10-26 09:00:00 TS 13.3921 107.750 main 0 0 PPPP__________ WP271995 13.3350 107.308 57 0 13.4573 108.108 3 997 0 9 13.3751 108.023 2 33 998 13.3924 107.700 TS 35 997 13 271
1995292N08150 1995 82 WP MM YVETTE 1995-10-26 12:00:00 TS 13.4083 107.075 1002 tokyo main 0 0 OOOO__________ jtwc_wp WP271995 13.3000 106.600 55 0 13.5000 107.500 2 1002 0 0 0 13.5000 107.500 1 29 1002 13.4000 107.000 TD 30 1000 13 271
1995292N08150 1995 82 WP MM YVETTE 1995-10-26 15:00:00 TS 13.4048 106.402 main 0 0 PP_P__________ WP271995 13.2844 105.987 50 0 13.5074 106.850 2 1003 0 0 1 13.4402 106.338 TD 27 1002 14 270
1995292N08150 1995 82 WP MM YVETTE 1995-10-26 18:00:00 TS 13.4000 105.688 1004 tokyo main 0 0 OO_O__________ jtwc_wp WP271995 13.3000 105.300 45 0 13.5000 106.200 2 1004 0 0 0 13.5000 105.700 TD 25 1004 16 269
1995292N08150 1995 82 WP MM YVETTE 1995-10-26 21:00:00 TS 13.3893 104.792 main 0 0 PP____________ WP271995 13.3351 104.395 37 0 13.4977 105.588 2 1004 0 0 TD 19 271
1995292N08150 1995 82 WP MM YVETTE 1995-10-27 00:00:00 TS 13.4200 103.720 1004 tokyo main 0 0 OO____________ jtwc_wp WP271995 13.4000 103.400 30 -1 13.5000 105.000 2 1004 0 0 0 23 273
1995292N08150 1995 82 WP MM YVETTE 1995-10-27 03:00:00 NR 13.4921 102.450 main 0 0 P_____________ WP271995 13.4921 102.450 27 -1 2 0 0 22 275
1995292N08150 1995 82 WP MM YVETTE 1995-10-27 06:00:00 NR 13.6000 101.500 main 0 0 O_____________ jtwc_wp WP271995 13.6000 101.500 25 -1 19 276
1995292N08150 1995 82 WP MM YVETTE 1995-10-27 09:00:00 NR 13.6922 100.542 main 0 0 P_____________ WP271995 13.6922 100.542 22 -1 19 276
1995292N08150 1995 82 NI BB YVETTE 1995-10-27 12:00:00 NR 13.8000 99.6000 main 0 0 O_____________ jtwc_wp WP271995 13.8000 99.6000 20 -1 18 278
1995292N08150 1995 82 NI BB YVETTE 1995-10-27 15:00:00 NR 13.9406 98.6903 main 0 0 P_____________ WP271995 13.9406 98.6903 20 -1 18 280
1995292N08150 1995 82 NI BB YVETTE 1995-10-27 18:00:00 NR 14.1000 97.8000 main 32 O_____________ jtwc_wp WP271995 14.1000 97.8000 20 -1 18 280

デジタル台風データ・検索

IBTrACS Databaseについて

本データベースは、米国NOAAが公開する1842年以降の世界の熱帯低気圧のベストトラックデータアーカイブInternational Best Track Archive for Climate Stewardship (IBTrACS)を、ウェブで閲覧しやすい形式に変換したものです。

最終更新日:2021-11-26